Terminal Aerodrome Forecast
Issued by NWS

Home | Current Version | Previous Version | Text Only | Print | Product List | Glossary On
Versions: 1 2 3 4 5 6 7 8 9 10 11 12
000
FTUS45 KSLC 241128
TAFENV
TAF
KENV 241128Z 2412/2512 VRB05KT P6SM SCT080 SCT150
     FM241300 31007KT P6SM SCT080 SCT200
     FM241900 28012KT P6SM SCT100
     FM250200 32007KT P6SM SCT060 BKN150=

USA.gov is the U.S. government's official web portal to all federal, state and local government web resources and services.